sensor_id;sensor_type;location;lat;lon;timestamp;temperature;humidity
16283;DHT22;8249;48.708;9.030;2023-03-03T00:01:57;1.90;99.90
16283;DHT22;8249;48.708;9.030;2023-03-03T00:04:24;1.90;99.90
16283;DHT22;8249;48.708;9.030;2023-03-03T00:06:51;1.90;99.90
16283;DHT22;8249;48.708;9.030;2023-03-03T00:09:18;1.90;99.90
16283;DHT22;8249;48.708;9.030;2023-03-03T00:11:47;2.00;99.90
16283;DHT22;8249;48.708;9.030;2023-03-03T00:14:18;2.00;99.90
16283;DHT22;8249;48.708;9.030;2023-03-03T00:16:47;1.90;99.90
16283;DHT22;8249;48.708;9.030;2023-03-03T00:19:17;1.90;99.90
16283;DHT22;8249;48.708;9.030;2023-03-03T00:21:46;1.90;99.90
16283;DHT22;8249;48.708;9.030;2023-03-03T00:24:19;1.90;99.90
16283;DHT22;8249;48.708;9.030;2023-03-03T00:26:47;1.90;99.90
16283;DHT22;8249;48.708;9.030;2023-03-03T00:29:30;1.80;99.90
16283;DHT22;8249;48.708;9.030;2023-03-03T00:32:24;1.90;99.90
16283;DHT22;8249;48.708;9.030;2023-03-03T00:34:55;1.80;99.90
16283;DHT22;8249;48.708;9.030;2023-03-03T00:37:30;1.80;99.90
16283;DHT22;8249;48.708;9.030;2023-03-03T00:40:19;1.80;99.90
16283;DHT22;8249;48.708;9.030;2023-03-03T00:42:49;1.70;99.90
16283;DHT22;8249;48.708;9.030;2023-03-03T00:45:26;1.70;99.90
16283;DHT22;8249;48.708;9.030;2023-03-03T00:47:54;1.70;99.90
16283;DHT22;8249;48.708;9.030;2023-03-03T00:50:28;1.60;99.90
16283;DHT22;8249;48.708;9.030;2023-03-03T00:53:05;1.60;99.90
16283;DHT22;8249;48.708;9.030;2023-03-03T00:55:33;1.50;99.90
16283;DHT22;8249;48.708;9.030;2023-03-03T00:58:01;1.50;99.90
16283;DHT22;8249;48.708;9.030;2023-03-03T01:00:32;1.50;99.90
16283;DHT22;8249;48.708;9.030;2023-03-03T01:03:02;1.40;99.90
16283;DHT22;8249;48.708;9.030;2023-03-03T01:05:31;1.30;99.90
16283;DHT22;8249;48.708;9.030;2023-03-03T01:07:59;1.20;99.90
16283;DHT22;8249;48.708;9.030;2023-03-03T01:10:27;1.20;99.90
16283;DHT22;8249;48.708;9.030;2023-03-03T01:12:56;1.10;99.90
16283;DHT22;8249;48.708;9.030;2023-03-03T01:15:24;1.00;99.90
16283;DHT22;8249;48.708;9.030;2023-03-03T01:17:51;0.90;99.90
16283;DHT22;8249;48.708;9.030;2023-03-03T01:20:18;0.90;99.90
16283;DHT22;8249;48.708;9.030;2023-03-03T01:22:46;0.80;99.90
16283;DHT22;8249;48.708;9.030;2023-03-03T01:25:13;0.80;99.90
16283;DHT22;8249;48.708;9.030;2023-03-03T01:27:40;0.70;99.90
16283;DHT22;8249;48.708;9.030;2023-03-03T01:30:08;0.60;99.90
16283;DHT22;8249;48.708;9.030;2023-03-03T01:32:36;0.60;99.90
16283;DHT22;8249;48.708;9.030;2023-03-03T01:35:04;0.60;99.90
16283;DHT22;8249;48.708;9.030;2023-03-03T01:37:33;0.50;99.90
16283;DHT22;8249;48.708;9.030;2023-03-03T01:40:03;0.50;99.90
16283;DHT22;8249;48.708;9.030;2023-03-03T01:42:31;0.40;99.90
16283;DHT22;8249;48.708;9.030;2023-03-03T01:45:14;0.40;99.90
16283;DHT22;8249;48.708;9.030;2023-03-03T01:47:46;0.30;99.90
16283;DHT22;8249;48.708;9.030;2023-03-03T01:50:20;0.30;99.90
16283;DHT22;8249;48.708;9.030;2023-03-03T01:52:51;0.30;99.90
16283;DHT22;8249;48.708;9.030;2023-03-03T01:55:21;0.20;99.90
16283;DHT22;8249;48.708;9.030;2023-03-03T01:57:54;0.20;99.90
16283;DHT22;8249;48.708;9.030;2023-03-03T02:00:24;0.10;99.90
16283;DHT22;8249;48.708;9.030;2023-03-03T02:02:52;0.10;99.90
16283;DHT22;8249;48.708;9.030;2023-03-03T02:05:20;0.10;99.90
16283;DHT22;8249;48.708;9.030;2023-03-03T02:07:47;0.00;99.90
16283;DHT22;8249;48.708;9.030;2023-03-03T02:10:17;0.00;99.90
16283;DHT22;8249;48.708;9.030;2023-03-03T02:12:49;0.00;99.90
16283;DHT22;8249;48.708;9.030;2023-03-03T02:15:18;-0.10;99.90
16283;DHT22;8249;48.708;9.030;2023-03-03T02:17:47;-0.10;99.90
16283;DHT22;8249;48.708;9.030;2023-03-03T02:20:19;-0.10;99.90
16283;DHT22;8249;48.708;9.030;2023-03-03T02:22:55;-0.10;99.90
16283;DHT22;8249;48.708;9.030;2023-03-03T02:25:29;-0.10;99.90
16283;DHT22;8249;48.708;9.030;2023-03-03T02:27:59;-0.10;99.90
16283;DHT22;8249;48.708;9.030;2023-03-03T02:30:26;-0.20;99.90
16283;DHT22;8249;48.708;9.030;2023-03-03T02:32:53;-0.20;99.90
16283;DHT22;8249;48.708;9.030;2023-03-03T02:35:33;-0.20;99.90
16283;DHT22;8249;48.708;9.030;2023-03-03T02:38:10;-0.30;99.90
16283;DHT22;8249;48.708;9.030;2023-03-03T02:40:43;-0.30;99.90
16283;DHT22;8249;48.708;9.030;2023-03-03T02:43:15;-0.30;99.90
16283;DHT22;8249;48.708;9.030;2023-03-03T02:45:44;-0.30;99.90
16283;DHT22;8249;48.708;9.030;2023-03-03T02:48:11;-0.30;99.90
16283;DHT22;8249;48.708;9.030;2023-03-03T02:50:38;-0.40;99.90
16283;DHT22;8249;48.708;9.030;2023-03-03T02:53:05;-0.30;99.90
16283;DHT22;8249;48.708;9.030;2023-03-03T02:55:32;-0.30;99.90
16283;DHT22;8249;48.708;9.030;2023-03-03T02:57:59;-0.30;99.90
16283;DHT22;8249;48.708;9.030;2023-03-03T03:00:27;-0.30;99.90
16283;DHT22;8249;48.708;9.030;2023-03-03T03:02:54;-0.30;99.90
16283;DHT22;8249;48.708;9.030;2023-03-03T03:05:22;-0.10;99.90
16283;DHT22;8249;48.708;9.030;2023-03-03T03:07:49;-0.20;99.90
16283;DHT22;8249;48.708;9.030;2023-03-03T03:10:17;-0.10;99.90
16283;DHT22;8249;48.708;9.030;2023-03-03T03:12:44;0.00;99.90
16283;DHT22;8249;48.708;9.030;2023-03-03T03:15:12;0.10;99.90
16283;DHT22;8249;48.708;9.030;2023-03-03T03:17:41;0.10;99.90
16283;DHT22;8249;48.708;9.030;2023-03-03T03:20:10;0.20;99.90
16283;DHT22;8249;48.708;9.030;2023-03-03T03:22:37;0.30;99.90
16283;DHT22;8249;48.708;9.030;2023-03-03T03:25:06;0.30;99.90
16283;DHT22;8249;48.708;9.030;2023-03-03T03:27:33;0.40;99.90
16283;DHT22;8249;48.708;9.030;2023-03-03T03:30:00;0.40;99.90
16283;DHT22;8249;48.708;9.030;2023-03-03T03:32:28;0.40;99.90
16283;DHT22;8249;48.708;9.030;2023-03-03T03:34:57;0.50;99.90
16283;DHT22;8249;48.708;9.030;2023-03-03T03:37:24;0.50;99.90
16283;DHT22;8249;48.708;9.030;2023-03-03T03:39:51;0.60;99.90
16283;DHT22;8249;48.708;9.030;2023-03-03T03:42:19;0.50;99.90
16283;DHT22;8249;48.708;9.030;2023-03-03T03:44:46;0.60;99.90
16283;DHT22;8249;48.708;9.030;2023-03-03T03:47:16;0.60;99.90
16283;DHT22;8249;48.708;9.030;2023-03-03T03:49:43;0.70;99.90
16283;DHT22;8249;48.708;9.030;2023-03-03T03:52:12;0.70;99.90
16283;DHT22;8249;48.708;9.030;2023-03-03T03:54:39;0.70;99.90
16283;DHT22;8249;48.708;9.030;2023-03-03T03:57:06;0.70;99.90
16283;DHT22;8249;48.708;9.030;2023-03-03T03:59:34;0.70;99.90
16283;DHT22;8249;48.708;9.030;2023-03-03T04:02:01;0.60;99.90
16283;DHT22;8249;48.708;9.030;2023-03-03T04:04:28;0.70;99.90
16283;DHT22;8249;48.708;9.030;2023-03-03T04:06:55;0.70;99.90
16283;DHT22;8249;48.708;9.030;2023-03-03T04:09:23;0.70;99.90
16283;DHT22;8249;48.708;9.030;2023-03-03T04:11:50;0.70;99.90
16283;DHT22;8249;48.708;9.030;2023-03-03T04:14:17;0.70;99.90
16283;DHT22;8249;48.708;9.030;2023-03-03T04:16:44;0.70;99.90
16283;DHT22;8249;48.708;9.030;2023-03-03T04:19:12;0.70;99.90
16283;DHT22;8249;48.708;9.030;2023-03-03T04:21:41;0.70;99.90
16283;DHT22;8249;48.708;9.030;2023-03-03T04:24:08;0.80;99.90
16283;DHT22;8249;48.708;9.030;2023-03-03T04:26:37;0.80;99.90
16283;DHT22;8249;48.708;9.030;2023-03-03T04:29:05;0.90;99.90
16283;DHT22;8249;48.708;9.030;2023-03-03T04:31:32;0.90;99.90
16283;DHT22;8249;48.708;9.030;2023-03-03T04:34:00;0.90;99.90
16283;DHT22;8249;48.708;9.030;2023-03-03T04:36:28;1.00;99.90
16283;DHT22;8249;48.708;9.030;2023-03-03T04:38:56;1.10;99.90
16283;DHT22;8249;48.708;9.030;2023-03-03T04:41:23;1.20;99.90
16283;DHT22;8249;48.708;9.030;2023-03-03T04:43:52;1.20;99.90
16283;DHT22;8249;48.708;9.030;2023-03-03T04:46:19;1.30;99.90
16283;DHT22;8249;48.708;9.030;2023-03-03T04:48:46;1.30;99.90
16283;DHT22;8249;48.708;9.030;2023-03-03T04:51:14;1.30;99.90
16283;DHT22;8249;48.708;9.030;2023-03-03T04:53:44;1.30;99.90
16283;DHT22;8249;48.708;9.030;2023-03-03T04:56:11;1.30;99.90
16283;DHT22;8249;48.708;9.030;2023-03-03T04:58:37;1.40;99.90
16283;DHT22;8249;48.708;9.030;2023-03-03T05:01:09;1.30;99.90
16283;DHT22;8249;48.708;9.030;2023-03-03T05:03:36;1.30;99.90
16283;DHT22;8249;48.708;9.030;2023-03-03T05:06:03;1.40;99.90
16283;DHT22;8249;48.708;9.030;2023-03-03T05:08:30;1.40;99.90
16283;DHT22;8249;48.708;9.030;2023-03-03T05:10:57;1.40;99.90
16283;DHT22;8249;48.708;9.030;2023-03-03T05:13:26;1.50;99.90
16283;DHT22;8249;48.708;9.030;2023-03-03T05:15:54;1.50;99.90
16283;DHT22;8249;48.708;9.030;2023-03-03T05:18:23;1.50;99.90
16283;DHT22;8249;48.708;9.030;2023-03-03T05:20:52;1.50;99.90
16283;DHT22;8249;48.708;9.030;2023-03-03T05:23:19;1.50;99.90
16283;DHT22;8249;48.708;9.030;2023-03-03T05:25:47;1.50;99.90
16283;DHT22;8249;48.708;9.030;2023-03-03T05:28:14;1.60;99.90
16283;DHT22;8249;48.708;9.030;2023-03-03T05:30:41;1.50;99.90
16283;DHT22;8249;48.708;9.030;2023-03-03T05:33:12;1.50;99.90
16283;DHT22;8249;48.708;9.030;2023-03-03T05:35:41;1.60;99.90
16283;DHT22;8249;48.708;9.030;2023-03-03T05:38:08;1.60;99.90
16283;DHT22;8249;48.708;9.030;2023-03-03T05:40:35;1.70;99.90
16283;DHT22;8249;48.708;9.030;2023-03-03T05:43:02;1.80;99.90
16283;DHT22;8249;48.708;9.030;2023-03-03T05:45:29;1.80;99.90
16283;DHT22;8249;48.708;9.030;2023-03-03T05:47:56;1.90;99.90
16283;DHT22;8249;48.708;9.030;2023-03-03T05:50:23;2.00;99.90
16283;DHT22;8249;48.708;9.030;2023-03-03T05:52:52;2.10;99.90
16283;DHT22;8249;48.708;9.030;2023-03-03T05:55:20;2.10;99.90
16283;DHT22;8249;48.708;9.030;2023-03-03T05:57:47;2.20;99.90
16283;DHT22;8249;48.708;9.030;2023-03-03T06:00:16;2.10;99.90
16283;DHT22;8249;48.708;9.030;2023-03-03T06:02:43;2.10;99.90
16283;DHT22;8249;48.708;9.030;2023-03-03T06:05:10;2.10;99.90
16283;DHT22;8249;48.708;9.030;2023-03-03T06:07:37;2.00;99.90
16283;DHT22;8249;48.708;9.030;2023-03-03T06:10:07;2.00;99.90
16283;DHT22;8249;48.708;9.030;2023-03-03T06:12:36;2.00;99.90
16283;DHT22;8249;48.708;9.030;2023-03-03T06:15:05;2.00;99.90
16283;DHT22;8249;48.708;9.030;2023-03-03T06:17:32;2.00;99.90
16283;DHT22;8249;48.708;9.030;2023-03-03T06:19:59;2.00;99.90
16283;DHT22;8249;48.708;9.030;2023-03-03T06:22:26;2.00;99.90
16283;DHT22;8249;48.708;9.030;2023-03-03T06:24:53;2.00;99.90
16283;DHT22;8249;48.708;9.030;2023-03-03T06:27:22;2.00;99.90
16283;DHT22;8249;48.708;9.030;2023-03-03T06:29:48;2.00;99.90
16283;DHT22;8249;48.708;9.030;2023-03-03T06:32:15;2.00;99.90
16283;DHT22;8249;48.708;9.030;2023-03-03T06:34:42;2.00;99.90
16283;DHT22;8249;48.708;9.030;2023-03-03T06:37:09;2.00;99.90
16283;DHT22;8249;48.708;9.030;2023-03-03T06:39:36;2.10;99.90
16283;DHT22;8249;48.708;9.030;2023-03-03T06:42:04;2.10;99.90
16283;DHT22;8249;48.708;9.030;2023-03-03T06:44:33;2.10;99.90
16283;DHT22;8249;48.708;9.030;2023-03-03T06:47:00;2.10;99.90
16283;DHT22;8249;48.708;9.030;2023-03-03T06:49:27;2.10;99.90
16283;DHT22;8249;48.708;9.030;2023-03-03T06:51:54;2.20;99.90
16283;DHT22;8249;48.708;9.030;2023-03-03T06:54:26;2.20;99.90
16283;DHT22;8249;48.708;9.030;2023-03-03T06:56:57;2.30;99.90
16283;DHT22;8249;48.708;9.030;2023-03-03T06:59:26;2.20;99.90
16283;DHT22;8249;48.708;9.030;2023-03-03T07:01:55;2.20;99.90
16283;DHT22;8249;48.708;9.030;2023-03-03T07:04:26;2.30;99.90
16283;DHT22;8249;48.708;9.030;2023-03-03T07:06:55;2.30;99.90
16283;DHT22;8249;48.708;9.030;2023-03-03T07:09:25;2.40;99.90
16283;DHT22;8249;48.708;9.030;2023-03-03T07:11:56;2.40;99.90
16283;DHT22;8249;48.708;9.030;2023-03-03T07:14:23;2.50;99.90
16283;DHT22;8249;48.708;9.030;2023-03-03T07:16:51;2.50;99.90
16283;DHT22;8249;48.708;9.030;2023-03-03T07:19:30;2.60;99.90
16283;DHT22;8249;48.708;9.030;2023-03-03T07:22:00;2.60;99.90
16283;DHT22;8249;48.708;9.030;2023-03-03T07:24:36;2.60;99.90
16283;DHT22;8249;48.708;9.030;2023-03-03T07:27:10;2.70;99.90
16283;DHT22;8249;48.708;9.030;2023-03-03T07:29:38;2.70;99.90
16283;DHT22;8249;48.708;9.030;2023-03-03T07:32:22;2.70;99.90
16283;DHT22;8249;48.708;9.030;2023-03-03T07:34:53;2.80;99.90
16283;DHT22;8249;48.708;9.030;2023-03-03T07:37:28;2.90;99.90
16283;DHT22;8249;48.708;9.030;2023-03-03T07:39:55;2.90;99.90
16283;DHT22;8249;48.708;9.030;2023-03-03T07:42:24;3.00;99.90
16283;DHT22;8249;48.708;9.030;2023-03-03T07:45:01;3.10;99.90
16283;DHT22;8249;48.708;9.030;2023-03-03T07:47:30;3.10;99.90
16283;DHT22;8249;48.708;9.030;2023-03-03T07:50:00;3.30;99.90
16283;DHT22;8249;48.708;9.030;2023-03-03T07:52:39;3.30;99.90
16283;DHT22;8249;48.708;9.030;2023-03-03T07:55:29;3.40;99.90
16283;DHT22;8249;48.708;9.030;2023-03-03T07:58:13;3.50;99.90
16283;DHT22;8249;48.708;9.030;2023-03-03T08:03:54;3.80;99.90
16283;DHT22;8249;48.708;9.030;2023-03-03T08:06:38;3.90;99.90
16283;DHT22;8249;48.708;9.030;2023-03-03T08:09:28;3.90;99.90
16283;DHT22;8249;48.708;9.030;2023-03-03T08:11:58;3.90;99.90
16283;DHT22;8249;48.708;9.030;2023-03-03T08:14:30;4.00;99.90
16283;DHT22;8249;48.708;9.030;2023-03-03T08:16:58;4.00;99.90
16283;DHT22;8249;48.708;9.030;2023-03-03T08:19:27;4.10;99.90
16283;DHT22;8249;48.708;9.030;2023-03-03T08:22:00;4.30;99.90
16283;DHT22;8249;48.708;9.030;2023-03-03T08:24:28;4.50;99.90
16283;DHT22;8249;48.708;9.030;2023-03-03T08:26:55;4.50;99.90
16283;DHT22;8249;48.708;9.030;2023-03-03T08:29:22;4.70;99.90
16283;DHT22;8249;48.708;9.030;2023-03-03T08:31:49;4.90;99.90
16283;DHT22;8249;48.708;9.030;2023-03-03T08:34:16;5.00;99.90
16283;DHT22;8249;48.708;9.030;2023-03-03T08:36:43;5.20;99.90
16283;DHT22;8249;48.708;9.030;2023-03-03T08:39:13;5.60;99.90
16283;DHT22;8249;48.708;9.030;2023-03-03T08:41:40;6.10;99.90
16283;DHT22;8249;48.708;9.030;2023-03-03T08:44:09;6.70;99.90
16283;DHT22;8249;48.708;9.030;2023-03-03T08:46:36;7.40;99.90
16283;DHT22;8249;48.708;9.030;2023-03-03T08:49:03;7.90;99.90
16283;DHT22;8249;48.708;9.030;2023-03-03T08:51:30;8.00;99.90
16283;DHT22;8249;48.708;9.030;2023-03-03T08:53:58;8.40;99.90
16283;DHT22;8249;48.708;9.030;2023-03-03T08:56:26;8.70;99.90
16283;DHT22;8249;48.708;9.030;2023-03-03T08:58:53;8.40;99.90
16283;DHT22;8249;48.708;9.030;2023-03-03T09:01:20;8.60;99.90
16283;DHT22;8249;48.708;9.030;2023-03-03T09:03:47;8.80;99.90
16283;DHT22;8249;48.708;9.030;2023-03-03T09:06:15;8.80;99.90
16283;DHT22;8249;48.708;9.030;2023-03-03T09:08:41;8.80;99.90
16283;DHT22;8249;48.708;9.030;2023-03-03T09:11:09;8.90;99.90
16283;DHT22;8249;48.708;9.030;2023-03-03T09:13:39;9.10;99.90
16283;DHT22;8249;48.708;9.030;2023-03-03T09:16:11;9.40;99.90
16283;DHT22;8249;48.708;9.030;2023-03-03T09:18:39;9.60;99.90
16283;DHT22;8249;48.708;9.030;2023-03-03T09:21:20;10.30;99.90
16283;DHT22;8249;48.708;9.030;2023-03-03T09:23:52;10.40;99.90
16283;DHT22;8249;48.708;9.030;2023-03-03T09:26:39;10.10;99.90
16283;DHT22;8249;48.708;9.030;2023-03-03T09:29:22;9.50;99.90
16283;DHT22;8249;48.708;9.030;2023-03-03T09:31:51;9.30;99.90
16283;DHT22;8249;48.708;9.030;2023-03-03T09:34:36;9.20;99.90
16283;DHT22;8249;48.708;9.030;2023-03-03T09:37:17;9.00;99.90
16283;DHT22;8249;48.708;9.030;2023-03-03T09:39:45;8.90;99.90
16283;DHT22;8249;48.708;9.030;2023-03-03T09:42:41;9.10;99.90
16283;DHT22;8249;48.708;9.030;2023-03-03T09:45:21;8.90;99.90
16283;DHT22;8249;48.708;9.030;2023-03-03T09:48:03;8.80;99.90
16283;DHT22;8249;48.708;9.030;2023-03-03T09:50:42;8.80;99.90
16283;DHT22;8249;48.708;9.030;2023-03-03T09:53:22;9.10;99.90
16283;DHT22;8249;48.708;9.030;2023-03-03T09:55:56;9.30;99.90
16283;DHT22;8249;48.708;9.030;2023-03-03T09:58:34;9.60;99.90
16283;DHT22;8249;48.708;9.030;2023-03-03T10:01:19;9.80;99.90
16283;DHT22;8249;48.708;9.030;2023-03-03T10:04:03;10.70;99.90
16283;DHT22;8249;48.708;9.030;2023-03-03T10:06:36;11.30;99.90
16283;DHT22;8249;48.708;9.030;2023-03-03T10:12:04;10.90;99.90
16283;DHT22;8249;48.708;9.030;2023-03-03T10:14:49;10.80;99.90
16283;DHT22;8249;48.708;9.030;2023-03-03T10:17:28;10.90;99.90
16283;DHT22;8249;48.708;9.030;2023-03-03T10:20:11;11.00;99.90
16283;DHT22;8249;48.708;9.030;2023-03-03T10:22:47;10.80;99.90
16283;DHT22;8249;48.708;9.030;2023-03-03T10:25:25;10.70;99.90
16283;DHT22;8249;48.708;9.030;2023-03-03T10:28:16;10.70;99.90
16283;DHT22;8249;48.708;9.030;2023-03-03T10:30:53;10.70;99.90
16283;DHT22;8249;48.708;9.030;2023-03-03T10:33:38;11.10;99.90
16283;DHT22;8249;48.708;9.030;2023-03-03T10:36:22;11.60;99.90
16283;DHT22;8249;48.708;9.030;2023-03-03T10:39:03;11.00;99.90
16283;DHT22;8249;48.708;9.030;2023-03-03T10:41:56;11.30;99.90
16283;DHT22;8249;48.708;9.030;2023-03-03T10:44:40;12.00;99.90
16283;DHT22;8249;48.708;9.030;2023-03-03T10:47:30;12.40;99.90
16283;DHT22;8249;48.708;9.030;2023-03-03T10:50:12;12.60;99.90
16283;DHT22;8249;48.708;9.030;2023-03-03T10:52:45;13.10;99.90
16283;DHT22;8249;48.708;9.030;2023-03-03T10:55:32;13.40;99.70
16283;DHT22;8249;48.708;9.030;2023-03-03T10:58:21;13.60;98.60
16283;DHT22;8249;48.708;9.030;2023-03-03T11:01:00;14.20;98.90
16283;DHT22;8249;48.708;9.030;2023-03-03T11:03:57;14.70;96.80
16283;DHT22;8249;48.708;9.030;2023-03-03T11:06:39;14.70;95.60
16283;DHT22;8249;48.708;9.030;2023-03-03T11:09:16;15.20;95.50
16283;DHT22;8249;48.708;9.030;2023-03-03T11:11:50;15.90;93.90
16283;DHT22;8249;48.708;9.030;2023-03-03T11:14:25;16.10;93.40
16283;DHT22;8249;48.708;9.030;2023-03-03T11:16:59;16.90;93.30
16283;DHT22;8249;48.708;9.030;2023-03-03T11:19:46;16.80;91.00
16283;DHT22;8249;48.708;9.030;2023-03-03T11:22:30;16.70;90.40
16283;DHT22;8249;48.708;9.030;2023-03-03T11:25:07;16.60;90.00
16283;DHT22;8249;48.708;9.030;2023-03-03T11:27:53;16.20;89.70
16283;DHT22;8249;48.708;9.030;2023-03-03T11:30:30;15.80;90.70
16283;DHT22;8249;48.708;9.030;2023-03-03T11:33:02;15.20;90.20
16283;DHT22;8249;48.708;9.030;2023-03-03T11:35:38;14.80;91.10
16283;DHT22;8249;48.708;9.030;2023-03-03T11:38:33;14.10;90.80
16283;DHT22;8249;48.708;9.030;2023-03-03T11:41:10;14.00;91.40
16283;DHT22;8249;48.708;9.030;2023-03-03T11:43:42;13.80;92.10
16283;DHT22;8249;48.708;9.030;2023-03-03T11:46:14;13.20;92.50
16283;DHT22;8249;48.708;9.030;2023-03-03T11:48:46;13.00;92.70
16283;DHT22;8249;48.708;9.030;2023-03-03T11:51:19;12.70;93.20
16283;DHT22;8249;48.708;9.030;2023-03-03T11:54:00;12.40;93.40
16283;DHT22;8249;48.708;9.030;2023-03-03T11:56:33;11.90;94.00
16283;DHT22;8249;48.708;9.030;2023-03-03T11:59:23;11.60;94.40
16283;DHT22;8249;48.708;9.030;2023-03-03T12:01:56;11.50;94.80
16283;DHT22;8249;48.708;9.030;2023-03-03T12:04:31;11.40;94.90
16283;DHT22;8249;48.708;9.030;2023-03-03T12:07:12;11.40;95.20
16283;DHT22;8249;48.708;9.030;2023-03-03T12:09:49;11.60;95.40
16283;DHT22;8249;48.708;9.030;2023-03-03T12:12:20;11.80;94.90
16283;DHT22;8249;48.708;9.030;2023-03-03T12:15:02;12.00;95.00
16283;DHT22;8249;48.708;9.030;2023-03-03T12:17:42;12.30;95.10
16283;DHT22;8249;48.708;9.030;2023-03-03T12:20:17;12.50;94.80
16283;DHT22;8249;48.708;9.030;2023-03-03T12:22:55;12.60;93.90
16283;DHT22;8249;48.708;9.030;2023-03-03T12:25:34;12.60;94.10
16283;DHT22;8249;48.708;9.030;2023-03-03T12:28:06;12.70;94.00
16283;DHT22;8249;48.708;9.030;2023-03-03T12:30:58;12.70;93.50
16283;DHT22;8249;48.708;9.030;2023-03-03T12:33:36;12.80;93.80
16283;DHT22;8249;48.708;9.030;2023-03-03T12:36:15;12.90;93.60
16283;DHT22;8249;48.708;9.030;2023-03-03T12:38:49;13.00;93.50
16283;DHT22;8249;48.708;9.030;2023-03-03T12:41:21;13.60;93.00
16283;DHT22;8249;48.708;9.030;2023-03-03T12:43:55;14.60;92.00
16283;DHT22;8249;48.708;9.030;2023-03-03T12:46:32;15.90;91.30
16283;DHT22;8249;48.708;9.030;2023-03-03T12:49:01;17.10;88.60
16283;DHT22;8249;48.708;9.030;2023-03-03T12:51:36;17.60;86.80
16283;DHT22;8249;48.708;9.030;2023-03-03T12:54:19;18.40;86.50
16283;DHT22;8249;48.708;9.030;2023-03-03T12:56:53;18.80;87.60
16283;DHT22;8249;48.708;9.030;2023-03-03T12:59:28;18.90;82.00
16283;DHT22;8249;48.708;9.030;2023-03-03T13:02:13;19.40;79.40
16283;DHT22;8249;48.708;9.030;2023-03-03T13:04:50;19.30;79.20
16283;DHT22;8249;48.708;9.030;2023-03-03T13:07:27;19.30;78.80
16283;DHT22;8249;48.708;9.030;2023-03-03T13:10:06;19.30;77.00
16283;DHT22;8249;48.708;9.030;2023-03-03T13:12:40;19.60;77.20
16283;DHT22;8249;48.708;9.030;2023-03-03T13:15:13;20.10;74.00
16283;DHT22;8249;48.708;9.030;2023-03-03T13:17:47;20.40;73.00
16283;DHT22;8249;48.708;9.030;2023-03-03T13:20:21;20.20;74.00
16283;DHT22;8249;48.708;9.030;2023-03-03T13:22:56;20.30;72.40
16283;DHT22;8249;48.708;9.030;2023-03-03T13:25:34;20.40;72.70
16283;DHT22;8249;48.708;9.030;2023-03-03T13:28:13;20.40;72.00
16283;DHT22;8249;48.708;9.030;2023-03-03T13:30:47;20.30;69.70
16283;DHT22;8249;48.708;9.030;2023-03-03T13:33:19;20.50;70.40
16283;DHT22;8249;48.708;9.030;2023-03-03T13:35:50;20.40;71.60
16283;DHT22;8249;48.708;9.030;2023-03-03T13:38:21;20.30;71.10
16283;DHT22;8249;48.708;9.030;2023-03-03T13:40:55;19.80;70.60
16283;DHT22;8249;48.708;9.030;2023-03-03T13:43:29;20.00;70.90
16283;DHT22;8249;48.708;9.030;2023-03-03T13:46:04;19.80;71.00
16283;DHT22;8249;48.708;9.030;2023-03-03T13:48:46;19.90;69.60
16283;DHT22;8249;48.708;9.030;2023-03-03T13:51:22;19.60;71.20
16283;DHT22;8249;48.708;9.030;2023-03-03T13:53:56;20.00;69.70
16283;DHT22;8249;48.708;9.030;2023-03-03T13:56:34;20.10;68.80
16283;DHT22;8249;48.708;9.030;2023-03-03T13:59:14;19.80;70.30
16283;DHT22;8249;48.708;9.030;2023-03-03T14:01:54;19.60;68.40
16283;DHT22;8249;48.708;9.030;2023-03-03T14:04:35;19.80;68.10
16283;DHT22;8249;48.708;9.030;2023-03-03T14:07:11;19.50;69.50
16283;DHT22;8249;48.708;9.030;2023-03-03T14:09:55;19.70;70.20
16283;DHT22;8249;48.708;9.030;2023-03-03T14:12:31;19.90;68.70
16283;DHT22;8249;48.708;9.030;2023-03-03T14:15:10;19.70;69.30
16283;DHT22;8249;48.708;9.030;2023-03-03T14:17:52;19.80;67.50
16283;DHT22;8249;48.708;9.030;2023-03-03T14:20:23;20.00;66.80
16283;DHT22;8249;48.708;9.030;2023-03-03T14:22:53;19.80;68.40
16283;DHT22;8249;48.708;9.030;2023-03-03T14:25:22;19.60;68.30
16283;DHT22;8249;48.708;9.030;2023-03-03T14:27:59;19.60;68.80
16283;DHT22;8249;48.708;9.030;2023-03-03T14:30:33;19.40;69.30
16283;DHT22;8249;48.708;9.030;2023-03-03T14:33:18;19.80;67.30
16283;DHT22;8249;48.708;9.030;2023-03-03T14:35:59;19.80;67.80
16283;DHT22;8249;48.708;9.030;2023-03-03T14:38:37;19.90;66.70
16283;DHT22;8249;48.708;9.030;2023-03-03T14:41:13;19.80;68.50
16283;DHT22;8249;48.708;9.030;2023-03-03T14:43:42;19.50;68.10
16283;DHT22;8249;48.708;9.030;2023-03-03T14:46:32;19.40;67.50
16283;DHT22;8249;48.708;9.030;2023-03-03T14:49:02;19.50;67.60
16283;DHT22;8249;48.708;9.030;2023-03-03T14:51:38;19.10;68.30
16283;DHT22;8249;48.708;9.030;2023-03-03T14:54:10;19.20;67.50
16283;DHT22;8249;48.708;9.030;2023-03-03T14:56:56;19.10;68.50
16283;DHT22;8249;48.708;9.030;2023-03-03T14:59:24;18.80;68.10
16283;DHT22;8249;48.708;9.030;2023-03-03T15:02:09;19.00;68.70
16283;DHT22;8249;48.708;9.030;2023-03-03T15:04:49;18.40;69.10
16283;DHT22;8249;48.708;9.030;2023-03-03T15:07:35;17.80;70.10
16283;DHT22;8249;48.708;9.030;2023-03-03T15:10:03;17.90;70.20
16283;DHT22;8249;48.708;9.030;2023-03-03T15:12:34;17.90;70.00
16283;DHT22;8249;48.708;9.030;2023-03-03T15:15:06;18.20;69.50
16283;DHT22;8249;48.708;9.030;2023-03-03T15:17:40;18.00;70.60
16283;DHT22;8249;48.708;9.030;2023-03-03T15:20:28;18.20;69.80
16283;DHT22;8249;48.708;9.030;2023-03-03T15:23:06;17.80;69.70
16283;DHT22;8249;48.708;9.030;2023-03-03T15:25:43;17.60;71.30
16283;DHT22;8249;48.708;9.030;2023-03-03T15:28:26;17.30;70.60
16283;DHT22;8249;48.708;9.030;2023-03-03T15:31:04;17.30;71.10
16283;DHT22;8249;48.708;9.030;2023-03-03T15:33:41;17.00;71.70
16283;DHT22;8249;48.708;9.030;2023-03-03T15:36:15;16.80;72.10
16283;DHT22;8249;48.708;9.030;2023-03-03T15:38:54;16.90;71.90
16283;DHT22;8249;48.708;9.030;2023-03-03T15:41:38;17.10;72.20
16283;DHT22;8249;48.708;9.030;2023-03-03T15:44:13;16.90;72.30
16283;DHT22;8249;48.708;9.030;2023-03-03T15:47:09;17.10;71.90
16283;DHT22;8249;48.708;9.030;2023-03-03T15:50:01;16.70;72.40
16283;DHT22;8249;48.708;9.030;2023-03-03T15:52:44;16.50;73.10
16283;DHT22;8249;48.708;9.030;2023-03-03T15:55:23;16.40;74.20
16283;DHT22;8249;48.708;9.030;2023-03-03T15:57:59;16.10;73.90
16283;DHT22;8249;48.708;9.030;2023-03-03T16:00:36;16.20;74.30
16283;DHT22;8249;48.708;9.030;2023-03-03T16:03:11;16.00;74.70
16283;DHT22;8249;48.708;9.030;2023-03-03T16:05:48;15.60;75.00
16283;DHT22;8249;48.708;9.030;2023-03-03T16:08:21;15.20;75.80
16283;DHT22;8249;48.708;9.030;2023-03-03T16:10:57;14.60;77.40
16283;DHT22;8249;48.708;9.030;2023-03-03T16:13:47;14.40;79.10
16283;DHT22;8249;48.708;9.030;2023-03-03T16:16:27;14.10;80.00
16283;DHT22;8249;48.708;9.030;2023-03-03T16:19:05;14.10;81.70
16283;DHT22;8249;48.708;9.030;2023-03-03T16:24:42;13.80;80.20
16283;DHT22;8249;48.708;9.030;2023-03-03T16:27:16;13.60;80.50
16283;DHT22;8249;48.708;9.030;2023-03-03T16:29:52;13.30;80.60
16283;DHT22;8249;48.708;9.030;2023-03-03T16:32:26;13.30;82.10
16283;DHT22;8249;48.708;9.030;2023-03-03T16:34:59;13.00;81.20
16283;DHT22;8249;48.708;9.030;2023-03-03T16:37:32;12.70;82.00
16283;DHT22;8249;48.708;9.030;2023-03-03T16:40:10;12.30;83.10
16283;DHT22;8249;48.708;9.030;2023-03-03T16:42:42;12.10;84.10